Time,TemperatureF,DewpointF,PressureIn,WindDirection,WindDirectionDegrees,WindSpeedMPH,WindSpeedGustMPH,Humidity,HourlyPrecipIn,Conditions,Clouds,dailyrainin,SoftwareType,DateUTC
2013-07-16 00:01:00,74.0,72.0,-100.00,SE,128,0.0,6.0,91,0.00,,,-99.99,,2013-07-16 04:01:00,
2013-07-16 00:12:00,75.0,70.0,-100.00,SE,127,0.0,6.0,90,0.00,,,-99.99,,2013-07-16 04:12:00,
2013-07-16 00:22:00,74.0,70.0,-100.00,SE,146,0.0,6.0,91,0.00,,,-99.99,,2013-07-16 04:22:00,
2013-07-16 00:32:00,74.0,70.0,-100.00,SE,134,0.0,6.0,91,0.00,,,-99.99,,2013-07-16 04:32:00,
2013-07-16 00:53:00,73.0,70.0,-100.00,SE,129,0.0,6.0,93,0.00,,,-99.99,,2013-07-16 04:53:00,
2013-07-16 01:01:00,73.0,70.0,-100.00,ESE,121,0.0,6.0,93,0.00,,,-99.99,,2013-07-16 05:01:00,
2013-07-16 01:22:00,73.0,70.0,-100.00,SE,139,0.0,6.0,94,0.00,,,-99.99,,2013-07-16 05:22:00,
2013-07-16 01:32:00,72.0,70.0,-100.00,ESE,111,0.0,6.0,94,0.00,,,-99.99,,2013-07-16 05:32:00,
2013-07-16 01:43:00,71.0,68.0,-100.00,ESE,114,0.0,6.0,94,0.00,,,-99.99,,2013-07-16 05:43:00,
2013-07-16 01:52:00,73.0,70.0,-100.00,South,173,0.0,6.0,94,0.00,,,-99.99,,2013-07-16 05:52:00,
2013-07-16 02:01:00,73.0,70.0,-100.00,SE,136,1.0,6.0,94,0.00,,,-99.99,,2013-07-16 06:01:00,
2013-07-16 02:22:00,73.0,70.0,-100.00,ESE,110,0.0,6.0,94,0.00,,,-99.99,,2013-07-16 06:22:00,
2013-07-16 02:43:00,72.0,70.0,-100.00,WSW,251,0.0,6.0,95,0.00,,,-99.99,,2013-07-16 06:43:00,
2013-07-16 03:22:00,72.0,70.0,-100.00,ESE,110,1.0,6.0,95,0.00,,,-99.99,,2013-07-16 07:22:00,
2013-07-16 04:22:00,72.0,70.0,-100.00,SE,131,0.0,1.0,98,0.00,,,-99.99,,2013-07-16 08:22:00,
2013-07-16 04:32:00,72.0,70.0,-100.00,SE,129,0.0,1.0,98,0.00,,,-99.99,,2013-07-16 08:32:00,
2013-07-16 04:43:00,73.0,72.0,-100.00,SE,134,0.0,1.0,98,0.00,,,-99.99,,2013-07-16 08:43:00,
2013-07-16 04:52:00,71.0,70.0,-100.00,SE,132,0.0,1.0,98,0.00,,,-99.99,,2013-07-16 08:52:00,
2013-07-16 05:12:00,73.0,72.0,-100.00,ESE,118,0.0,1.0,98,0.00,,,-99.99,,2013-07-16 09:12:00,
2013-07-16 05:52:00,72.0,70.0,-100.00,SSE,168,0.0,1.0,98,0.00,,,-99.99,,2013-07-16 09:52:00,
2013-07-16 06:01:00,72.0,70.0,-100.00,SSE,168,0.0,1.0,98,0.00,,,-99.99,,2013-07-16 10:01:00,
2013-07-16 06:52:00,72.0,70.0,-100.00,ESE,117,0.0,1.0,98,0.00,,,-99.99,,2013-07-16 10:52:00,
2013-07-16 07:53:00,71.0,68.0,-100.00,East,88,0.0,1.0,93,0.00,,,-99.99,,2013-07-16 11:53:00,
2013-07-16 08:01:00,74.0,70.0,-100.00,SW,224,0.0,1.0,90,0.00,,,-99.99,,2013-07-16 12:01:00,
2013-07-16 08:22:00,74.0,68.0,-100.00,ESE,105,0.0,1.0,86,0.00,,,-99.99,,2013-07-16 12:22:00,
2013-07-16 08:53:00,78.0,72.0,-100.00,NE,40,0.0,1.0,84,0.00,,,-99.99,,2013-07-16 12:53:00,
2013-07-16 09:01:00,75.0,70.0,-100.00,ENE,59,1.0,1.0,85,0.00,,,-99.99,,2013-07-16 13:01:00,
2013-07-16 09:11:00,78.0,72.0,-100.00,NE,36,1.0,1.0,84,0.00,,,-99.99,,2013-07-16 13:11:00,
2013-07-16 09:22:00,79.0,72.0,-100.00,East,101,0.0,1.0,80,0.00,,,-99.99,,2013-07-16 13:22:00,
2013-07-16 09:32:00,81.0,72.0,-100.00,East,81,0.0,1.0,76,0.00,,,-99.99,,2013-07-16 13:32:00,
2013-07-16 09:42:00,81.0,72.0,-100.00,East,81,0.0,1.0,76,0.00,,,-99.99,,2013-07-16 13:42:00,
2013-07-16 09:52:00,82.0,72.0,-100.00,East,98,1.0,1.0,75,0.00,,,-99.99,,2013-07-16 13:52:00,
2013-07-16 10:02:00,83.0,73.0,-100.00,NNE,22,1.0,1.0,75,0.00,,,-99.99,,2013-07-16 14:02:00,
2013-07-16 10:22:00,84.0,73.0,-100.00,SE,128,1.0,1.0,73,0.00,,,-99.99,,2013-07-16 14:22:00,
2013-07-16 10:32:00,85.0,73.0,-100.00,SSE,165,1.0,1.0,71,0.00,,,-99.99,,2013-07-16 14:32:00,
2013-07-16 10:43:00,84.0,73.0,-100.00,SSW,207,1.0,1.0,72,0.00,,,-99.99,,2013-07-16 14:43:00,
2013-07-16 10:52:00,85.0,72.0,-100.00,SE,145,2.0,2.0,67,0.00,,,-99.99,,2013-07-16 14:52:00,
2013-07-16 11:11:00,87.0,72.0,-100.00,SE,128,2.0,2.0,64,0.00,,,-99.99,,2013-07-16 15:11:00,
2013-07-16 11:22:00,85.0,72.0,-100.00,South,190,2.0,2.0,66,0.00,,,-99.99,,2013-07-16 15:22:00,
2013-07-16 18:52:00,85.0,75.0,-100.00,SW,228,1.0,8.0,75,0.00,,,-99.99,,2013-07-16 22:52:00,
2013-07-16 19:22:00,84.0,75.0,-100.00,North,355,0.0,8.0,78,0.00,,,-99.99,,2013-07-16 23:22:00,
2013-07-16 19:32:00,85.0,75.0,-100.00,NW,306,0.0,8.0,78,0.00,,,-99.99,,2013-07-16 23:32:00,
2013-07-16 20:11:00,83.0,73.0,-100.00,WNW,286,0.0,8.0,77,0.00,,,-99.99,,2013-07-17 00:11:00,
2013-07-16 20:22:00,84.0,77.0,-100.00,WSW,252,1.0,8.0,81,0.00,,,-99.99,,2013-07-17 00:22:00,
2013-07-16 21:22:00,82.0,75.0,-100.00,NW,310,0.0,8.0,85,0.00,,,-99.99,,2013-07-17 01:22:00,
2013-07-16 21:53:00,81.0,75.0,-100.00,West,271,0.0,8.0,88,0.00,,,-99.99,,2013-07-17 01:53:00,
2013-07-16 22:01:00,77.0,73.0,-100.00,ENE,57,0.0,8.0,89,0.00,,,-99.99,,2013-07-17 02:01:00,
2013-07-16 22:53:00,79.0,75.0,-100.00,East,90,0.0,8.0,93,0.00,,,-99.99,,2013-07-17 02:53:00,
2013-07-16 23:53:00,78.0,75.0,-100.00,ENE,59,0.0,8.0,94,0.00,,,-99.99,,2013-07-17 03:53:00,